Pagina principale
METAR-TAF:

METAR-TAF

Aeroporti :

Aeroporto di Bangui-M'Poko

Bangui, Repubblica Centrafricana

latitudine: 04-24N, longitudine: 018-31E, altezza: 365 m

Osservazione

Il bollettino è stato emesso 1 ora e 19 minuti fa, alle 02:00 UTC
Vento calmo
Temperature 27°C
Umidità 89%
Pressione 1009 hPa
Visibilità 10 km o più
nessuna nube inferiore a 1500 m e nessun cumulonembo

METAR: FEFF 240200Z 00000KT CAVOK 27/25 Q1009 NOSIG

Ora: 04:19 (03:19 UTC)

Previsione

Il bollettino è stato emesso 4 ore e 19 minuti fa, alle 23:00 UTC
Previsione valida dal 24 alle 00 UTC al 25 alle 06 UTC
Vento 2 kt da direzioni variabili
Visibilità: 8000 m
Poco nuvoloso ad un'altezza di 1000 ft
Evoluzione graduale
dal 24 alle 03 UTC al 24 alle 05 UTC
Visibilità: 4000 m
foschia
A partire da 24 alle 0800 UTC
Vento 5 kt da sud
Visibilità 10 km o più
Nubi sparse ad un'altezza di 1300 ft

TAF: FEFF 232300Z 2400/2506 VRB02KT 8000 FEW010 BECMG 2403/2405 4000 BR FM240800 18005KT 9999 SCT013

Osservazioni e previsioni meteorologiche di più di 4000 aeroporti (messaggi METAR e TAF).

Le stazioni disponibili sono rappresentate dai dischi gialli e rossi sulla carta.

Puntare il mouse per vedere il nome della stazione.

Clicca sopra per visualizzare le osservazioni e previsioni meteorologiche.

Per cambiare la mappa : fare clic sui pulsanti verdi con una croce nera per ingrandire, il pulsante verde con un trattino per diminuire, o sulla freccia verde per le mappe adiacenti.


METAR-TAF: